sensor_id;sensor_type;location;lat;lon;timestamp;pressure;altitude;pressure_sealevel;temperature;humidity
42859;BME280;28505;56.970;40.998;2023-08-21T00:00:30;100180.22;;;12.15;100.00
42859;BME280;28505;56.970;40.998;2023-08-21T00:05:53;100192.03;;;12.19;100.00
42859;BME280;28505;56.970;40.998;2023-08-21T00:11:15;100174.00;;;12.14;100.00
42859;BME280;28505;56.970;40.998;2023-08-21T00:16:37;100189.50;;;11.57;100.00
42859;BME280;28505;56.970;40.998;2023-08-21T00:22:00;100179.84;;;11.89;100.00
42859;BME280;28505;56.970;40.998;2023-08-21T00:27:23;100176.72;;;11.82;100.00
42859;BME280;28505;56.970;40.998;2023-08-21T00:32:45;100182.16;;;11.63;100.00
42859;BME280;28505;56.970;40.998;2023-08-21T00:38:10;100176.59;;;11.54;100.00
42859;BME280;28505;56.970;40.998;2023-08-21T00:43:32;100184.53;;;11.32;100.00
42859;BME280;28505;56.970;40.998;2023-08-21T00:48:54;100180.81;;;10.85;100.00
42859;BME280;28505;56.970;40.998;2023-08-21T00:54:16;100175.25;;;11.19;100.00
42859;BME280;28505;56.970;40.998;2023-08-21T00:59:39;100181.72;;;10.80;100.00
42859;BME280;28505;56.970;40.998;2023-08-21T01:05:01;100191.00;;;10.93;100.00
42859;BME280;28505;56.970;40.998;2023-08-21T01:16:14;100188.34;;;10.40;100.00
42859;BME280;28505;56.970;40.998;2023-08-21T01:21:36;100191.66;;;11.22;100.00
42859;BME280;28505;56.970;40.998;2023-08-21T01:33:12;100178.56;;;10.49;100.00
42859;BME280;28505;56.970;40.998;2023-08-21T01:38:38;100185.69;;;10.64;100.00
42859;BME280;28505;56.970;40.998;2023-08-21T01:44:00;100187.06;;;10.08;100.00
42859;BME280;28505;56.970;40.998;2023-08-21T01:49:22;100179.44;;;10.15;100.00
42859;BME280;28505;56.970;40.998;2023-08-21T01:54:45;100190.44;;;10.19;100.00
42859;BME280;28505;56.970;40.998;2023-08-21T02:00:11;100193.44;;;10.17;100.00
42859;BME280;28505;56.970;40.998;2023-08-21T02:05:38;100201.53;;;9.83;100.00
42859;BME280;28505;56.970;40.998;2023-08-21T02:11:02;100201.84;;;10.40;100.00
42859;BME280;28505;56.970;40.998;2023-08-21T02:16:25;100199.16;;;10.11;100.00
42859;BME280;28505;56.970;40.998;2023-08-21T02:21:47;100202.38;;;9.78;100.00
42859;BME280;28505;56.970;40.998;2023-08-21T02:27:12;100187.09;;;9.34;100.00
42859;BME280;28505;56.970;40.998;2023-08-21T02:32:34;100192.41;;;9.79;100.00
42859;BME280;28505;56.970;40.998;2023-08-21T02:37:57;100191.66;;;10.02;100.00
42859;BME280;28505;56.970;40.998;2023-08-21T02:43:19;100198.53;;;10.19;100.00
42859;BME280;28505;56.970;40.998;2023-08-21T02:48:41;100206.22;;;9.67;100.00
42859;BME280;28505;56.970;40.998;2023-08-21T02:54:03;100218.47;;;9.89;100.00
42859;BME280;28505;56.970;40.998;2023-08-21T02:59:27;100217.53;;;9.69;100.00
42859;BME280;28505;56.970;40.998;2023-08-21T03:04:49;100223.38;;;10.40;100.00
42859;BME280;28505;56.970;40.998;2023-08-21T03:10:11;100225.53;;;10.43;100.00
42859;BME280;28505;56.970;40.998;2023-08-21T03:15:34;100224.66;;;10.18;100.00
42859;BME280;28505;56.970;40.998;2023-08-21T03:20:57;100219.41;;;10.37;100.00
42859;BME280;28505;56.970;40.998;2023-08-21T03:26:20;100218.72;;;10.21;100.00
42859;BME280;28505;56.970;40.998;2023-08-21T03:31:42;100217.91;;;10.74;100.00
42859;BME280;28505;56.970;40.998;2023-08-21T03:37:04;100223.78;;;10.57;100.00
42859;BME280;28505;56.970;40.998;2023-08-21T03:42:28;100221.94;;;10.76;100.00
42859;BME280;28505;56.970;40.998;2023-08-21T03:47:50;100214.44;;;11.35;100.00
42859;BME280;28505;56.970;40.998;2023-08-21T03:53:14;100215.44;;;11.20;100.00
42859;BME280;28505;56.970;40.998;2023-08-21T03:58:36;100214.09;;;11.75;100.00
42859;BME280;28505;56.970;40.998;2023-08-21T04:04:00;100200.78;;;11.64;100.00
42859;BME280;28505;56.970;40.998;2023-08-21T04:09:23;100199.09;;;12.01;100.00
42859;BME280;28505;56.970;40.998;2023-08-21T04:14:46;100193.84;;;12.10;100.00
42859;BME280;28505;56.970;40.998;2023-08-21T04:20:08;100202.50;;;12.53;100.00
42859;BME280;28505;56.970;40.998;2023-08-21T04:25:30;100186.03;;;12.77;100.00
42859;BME280;28505;56.970;40.998;2023-08-21T04:30:52;100191.84;;;12.84;100.00
42859;BME280;28505;56.970;40.998;2023-08-21T04:36:16;100170.44;;;13.10;100.00
42859;BME280;28505;56.970;40.998;2023-08-21T04:41:41;100206.72;;;13.59;100.00
42859;BME280;28505;56.970;40.998;2023-08-21T04:47:24;100209.00;;;13.89;100.00
42859;BME280;28505;56.970;40.998;2023-08-21T04:52:51;100196.78;;;14.54;100.00
42859;BME280;28505;56.970;40.998;2023-08-21T04:58:13;100212.13;;;14.27;100.00
42859;BME280;28505;56.970;40.998;2023-08-21T05:03:37;100210.72;;;14.69;100.00
42859;BME280;28505;56.970;40.998;2023-08-21T05:09:00;100210.22;;;14.59;100.00
42859;BME280;28505;56.970;40.998;2023-08-21T05:14:23;100206.66;;;15.07;100.00
42859;BME280;28505;56.970;40.998;2023-08-21T05:19:46;100207.50;;;15.51;100.00
42859;BME280;28505;56.970;40.998;2023-08-21T05:25:09;100206.53;;;15.46;100.00
42859;BME280;28505;56.970;40.998;2023-08-21T05:30:32;100199.19;;;15.90;100.00
42859;BME280;28505;56.970;40.998;2023-08-21T05:35:56;100202.84;;;15.95;100.00
42859;BME280;28505;56.970;40.998;2023-08-21T05:41:19;100194.28;;;16.60;100.00
42859;BME280;28505;56.970;40.998;2023-08-21T05:46:42;100203.09;;;16.66;100.00
42859;BME280;28505;56.970;40.998;2023-08-21T05:52:09;100207.44;;;17.39;100.00
42859;BME280;28505;56.970;40.998;2023-08-21T05:57:31;100202.00;;;17.39;100.00
42859;BME280;28505;56.970;40.998;2023-08-21T06:02:55;100204.59;;;17.14;98.12
42859;BME280;28505;56.970;40.998;2023-08-21T06:08:45;100201.03;;;17.43;95.18
42859;BME280;28505;56.970;40.998;2023-08-21T06:14:07;100194.78;;;17.97;83.91
42859;BME280;28505;56.970;40.998;2023-08-21T06:19:31;100208.91;;;17.57;83.79
42859;BME280;28505;56.970;40.998;2023-08-21T06:24:56;100213.28;;;17.70;73.34
42859;BME280;28505;56.970;40.998;2023-08-21T06:30:18;100206.38;;;18.64;75.96
42859;BME280;28505;56.970;40.998;2023-08-21T06:35:41;100200.59;;;18.78;71.92
42859;BME280;28505;56.970;40.998;2023-08-21T06:41:04;100208.53;;;18.83;78.26
42859;BME280;28505;56.970;40.998;2023-08-21T06:46:33;100199.09;;;18.92;74.82
42859;BME280;28505;56.970;40.998;2023-08-21T06:51:58;100197.63;;;19.35;66.92
42859;BME280;28505;56.970;40.998;2023-08-21T06:57:23;100207.69;;;19.59;70.06
42859;BME280;28505;56.970;40.998;2023-08-21T07:02:47;100206.38;;;18.88;70.21
42859;BME280;28505;56.970;40.998;2023-08-21T07:08:09;100202.28;;;19.47;68.40
42859;BME280;28505;56.970;40.998;2023-08-21T07:13:32;100201.91;;;18.59;70.14
42859;BME280;28505;56.970;40.998;2023-08-21T07:18:55;100203.94;;;19.52;62.48
42859;BME280;28505;56.970;40.998;2023-08-21T07:24:23;100194.25;;;19.67;66.17
42859;BME280;28505;56.970;40.998;2023-08-21T07:29:45;100188.72;;;20.70;61.19
42859;BME280;28505;56.970;40.998;2023-08-21T07:35:08;100203.25;;;20.90;64.13
42859;BME280;28505;56.970;40.998;2023-08-21T07:40:31;100194.88;;;18.95;58.36
42859;BME280;28505;56.970;40.998;2023-08-21T07:46:04;100201.97;;;20.52;58.34
42859;BME280;28505;56.970;40.998;2023-08-21T07:51:27;100201.47;;;18.69;61.97
42859;BME280;28505;56.970;40.998;2023-08-21T07:56:49;100185.41;;;19.85;59.28
42859;BME280;28505;56.970;40.998;2023-08-21T08:02:11;100189.59;;;19.14;56.94
42859;BME280;28505;56.970;40.998;2023-08-21T08:07:36;100191.50;;;20.10;59.39
42859;BME280;28505;56.970;40.998;2023-08-21T08:12:59;100168.28;;;20.04;52.42
42859;BME280;28505;56.970;40.998;2023-08-21T08:18:20;100178.47;;;18.34;56.56
42859;BME280;28505;56.970;40.998;2023-08-21T08:23:42;100169.81;;;20.18;60.05
42859;BME280;28505;56.970;40.998;2023-08-21T08:29:05;100172.00;;;21.30;55.75
42859;BME280;28505;56.970;40.998;2023-08-21T08:34:27;100159.38;;;20.23;55.21
42859;BME280;28505;56.970;40.998;2023-08-21T08:39:49;100158.38;;;19.84;59.69
42859;BME280;28505;56.970;40.998;2023-08-21T08:45:13;100162.19;;;18.13;63.92
42859;BME280;28505;56.970;40.998;2023-08-21T08:50:37;100152.75;;;18.96;61.37
42859;BME280;28505;56.970;40.998;2023-08-21T08:56:01;100142.19;;;18.09;63.18
42859;BME280;28505;56.970;40.998;2023-08-21T09:01:23;100131.19;;;19.75;60.12
42859;BME280;28505;56.970;40.998;2023-08-21T09:06:47;100143.38;;;19.94;54.62
42859;BME280;28505;56.970;40.998;2023-08-21T09:12:12;100123.06;;;19.51;57.52
42859;BME280;28505;56.970;40.998;2023-08-21T09:17:37;100135.81;;;19.59;58.67
42859;BME280;28505;56.970;40.998;2023-08-21T09:23:01;100129.25;;;20.71;55.01
42859;BME280;28505;56.970;40.998;2023-08-21T09:28:26;100129.09;;;21.38;54.98
42859;BME280;28505;56.970;40.998;2023-08-21T09:33:56;100128.88;;;18.56;59.43
42859;BME280;28505;56.970;40.998;2023-08-21T09:39:19;100114.84;;;19.07;60.87
42859;BME280;28505;56.970;40.998;2023-08-21T09:44:41;100114.94;;;19.67;61.51
42859;BME280;28505;56.970;40.998;2023-08-21T09:50:06;100111.75;;;20.60;60.19
42859;BME280;28505;56.970;40.998;2023-08-21T09:55:32;100117.78;;;19.02;58.71
42859;BME280;28505;56.970;40.998;2023-08-21T10:00:58;100111.50;;;19.70;58.91
42859;BME280;28505;56.970;40.998;2023-08-21T10:06:21;100107.88;;;20.61;52.49
42859;BME280;28505;56.970;40.998;2023-08-21T10:11:47;100109.84;;;20.13;55.99
42859;BME280;28505;56.970;40.998;2023-08-21T10:17:11;100107.84;;;18.44;61.53
42859;BME280;28505;56.970;40.998;2023-08-21T10:22:48;100106.56;;;19.91;57.53
42859;BME280;28505;56.970;40.998;2023-08-21T10:28:15;100097.41;;;19.83;58.06
42859;BME280;28505;56.970;40.998;2023-08-21T10:33:47;100094.81;;;19.75;58.08
42859;BME280;28505;56.970;40.998;2023-08-21T10:39:24;100087.78;;;20.21;56.98
42859;BME280;28505;56.970;40.998;2023-08-21T10:44:49;100082.88;;;20.81;56.41
42859;BME280;28505;56.970;40.998;2023-08-21T10:50:18;100069.09;;;20.58;52.19
42859;BME280;28505;56.970;40.998;2023-08-21T10:55:40;100076.97;;;19.49;54.93
42859;BME280;28505;56.970;40.998;2023-08-21T11:01:05;100082.44;;;19.49;57.87
42859;BME280;28505;56.970;40.998;2023-08-21T11:06:27;100069.06;;;19.76;53.86
42859;BME280;28505;56.970;40.998;2023-08-21T11:11:50;100064.97;;;20.33;55.71
42859;BME280;28505;56.970;40.998;2023-08-21T11:17:13;100069.34;;;21.47;51.57
42859;BME280;28505;56.970;40.998;2023-08-21T11:22:37;100052.81;;;20.85;54.52
42859;BME280;28505;56.970;40.998;2023-08-21T11:28:01;100066.22;;;19.88;58.71
42859;BME280;28505;56.970;40.998;2023-08-21T11:33:33;100066.09;;;20.64;54.38
42859;BME280;28505;56.970;40.998;2023-08-21T11:39:02;100054.59;;;20.58;53.20
42859;BME280;28505;56.970;40.998;2023-08-21T11:44:40;100036.94;;;20.55;51.21
42859;BME280;28505;56.970;40.998;2023-08-21T11:50:07;100033.88;;;20.41;54.85
42859;BME280;28505;56.970;40.998;2023-08-21T11:55:31;100051.66;;;18.96;61.32
42859;BME280;28505;56.970;40.998;2023-08-21T12:00:54;100038.66;;;19.33;60.47
42859;BME280;28505;56.970;40.998;2023-08-21T12:06:18;100036.75;;;19.97;58.18
42859;BME280;28505;56.970;40.998;2023-08-21T12:11:42;100030.06;;;19.79;59.39
42859;BME280;28505;56.970;40.998;2023-08-21T12:17:04;100038.03;;;20.51;55.61
42859;BME280;28505;56.970;40.998;2023-08-21T12:22:27;100029.75;;;20.31;56.42
42859;BME280;28505;56.970;40.998;2023-08-21T12:27:49;100024.34;;;20.35;56.34
42859;BME280;28505;56.970;40.998;2023-08-21T12:33:32;100014.94;;;20.17;53.60
42859;BME280;28505;56.970;40.998;2023-08-21T12:39:01;100021.94;;;19.98;51.29
42859;BME280;28505;56.970;40.998;2023-08-21T12:44:29;100019.25;;;19.54;51.30
42859;BME280;28505;56.970;40.998;2023-08-21T12:49:56;100017.59;;;18.65;54.83
42859;BME280;28505;56.970;40.998;2023-08-21T12:55:19;100019.28;;;18.70;57.77
42859;BME280;28505;56.970;40.998;2023-08-21T13:00:47;100011.47;;;19.25;58.10
42859;BME280;28505;56.970;40.998;2023-08-21T13:06:16;99998.38;;;19.46;54.46
42859;BME280;28505;56.970;40.998;2023-08-21T13:11:40;99987.72;;;19.73;53.90
42859;BME280;28505;56.970;40.998;2023-08-21T13:17:04;99990.59;;;19.48;56.56
42859;BME280;28505;56.970;40.998;2023-08-21T13:22:28;99969.28;;;19.70;53.52
42859;BME280;28505;56.970;40.998;2023-08-21T13:27:51;99985.22;;;19.83;53.16
42859;BME280;28505;56.970;40.998;2023-08-21T13:33:17;99988.47;;;19.57;57.92
42859;BME280;28505;56.970;40.998;2023-08-21T13:38:40;99973.31;;;19.92;55.93
42859;BME280;28505;56.970;40.998;2023-08-21T13:44:02;99977.50;;;19.70;57.57
42859;BME280;28505;56.970;40.998;2023-08-21T13:49:25;99975.44;;;19.82;56.61
42859;BME280;28505;56.970;40.998;2023-08-21T13:54:48;99973.00;;;20.13;55.97
42859;BME280;28505;56.970;40.998;2023-08-21T14:00:11;99962.41;;;19.76;55.39
42859;BME280;28505;56.970;40.998;2023-08-21T14:05:34;99959.38;;;19.33;58.14
42859;BME280;28505;56.970;40.998;2023-08-21T14:10:57;99960.75;;;19.11;57.29
42859;BME280;28505;56.970;40.998;2023-08-21T14:16:20;99964.56;;;19.23;60.09
42859;BME280;28505;56.970;40.998;2023-08-21T14:21:43;99955.50;;;18.62;63.92
42859;BME280;28505;56.970;40.998;2023-08-21T14:27:05;99945.81;;;18.77;61.91
42859;BME280;28505;56.970;40.998;2023-08-21T14:32:28;99953.44;;;19.15;56.96
42859;BME280;28505;56.970;40.998;2023-08-21T14:37:50;99945.00;;;19.21;60.99
42859;BME280;28505;56.970;40.998;2023-08-21T14:43:13;99934.72;;;18.86;61.58
42859;BME280;28505;56.970;40.998;2023-08-21T14:48:36;99934.25;;;19.28;61.50
42859;BME280;28505;56.970;40.998;2023-08-21T14:54:08;99932.09;;;19.05;58.48
42859;BME280;28505;56.970;40.998;2023-08-21T14:59:37;99933.88;;;18.57;63.52
42859;BME280;28505;56.970;40.998;2023-08-21T15:05:08;99932.13;;;18.49;66.52
42859;BME280;28505;56.970;40.998;2023-08-21T15:10:38;99931.25;;;18.33;68.58
42859;BME280;28505;56.970;40.998;2023-08-21T15:16:05;99925.41;;;18.06;66.37
42859;BME280;28505;56.970;40.998;2023-08-21T15:21:27;99917.50;;;17.76;75.54
42859;BME280;28505;56.970;40.998;2023-08-21T15:26:49;99907.22;;;17.12;79.85
42859;BME280;28505;56.970;40.998;2023-08-21T15:32:11;99917.84;;;16.93;84.56
42859;BME280;28505;56.970;40.998;2023-08-21T15:37:34;99908.72;;;16.76;92.20
42859;BME280;28505;56.970;40.998;2023-08-21T15:43:01;99910.34;;;16.35;90.94
42859;BME280;28505;56.970;40.998;2023-08-21T15:48:25;99906.22;;;15.87;100.00
42859;BME280;28505;56.970;40.998;2023-08-21T15:53:47;99904.88;;;15.64;100.00
42859;BME280;28505;56.970;40.998;2023-08-21T15:59:10;99902.75;;;15.40;100.00
42859;BME280;28505;56.970;40.998;2023-08-21T16:04:32;99905.47;;;15.02;100.00
42859;BME280;28505;56.970;40.998;2023-08-21T16:09:56;99902.13;;;14.87;100.00
42859;BME280;28505;56.970;40.998;2023-08-21T16:15:23;99917.81;;;14.38;100.00
42859;BME280;28505;56.970;40.998;2023-08-21T16:20:46;99915.41;;;14.11;100.00
42859;BME280;28505;56.970;40.998;2023-08-21T16:26:08;99920.97;;;13.88;100.00
42859;BME280;28505;56.970;40.998;2023-08-21T16:31:30;99911.81;;;13.67;100.00
42859;BME280;28505;56.970;40.998;2023-08-21T16:36:53;99924.34;;;13.45;100.00
42859;BME280;28505;56.970;40.998;2023-08-21T16:42:15;99924.13;;;13.24;100.00
42859;BME280;28505;56.970;40.998;2023-08-21T16:47:37;99923.94;;;13.61;100.00
42859;BME280;28505;56.970;40.998;2023-08-21T16:53:00;99916.88;;;13.20;100.00
42859;BME280;28505;56.970;40.998;2023-08-21T16:58:42;99916.81;;;13.33;100.00
42859;BME280;28505;56.970;40.998;2023-08-21T17:04:04;99912.03;;;12.77;100.00
42859;BME280;28505;56.970;40.998;2023-08-21T17:09:27;99917.69;;;12.89;100.00
42859;BME280;28505;56.970;40.998;2023-08-21T17:14:51;99910.44;;;12.76;100.00
42859;BME280;28505;56.970;40.998;2023-08-21T17:20:13;99908.53;;;13.07;100.00
42859;BME280;28505;56.970;40.998;2023-08-21T17:25:35;99903.97;;;13.17;100.00
42859;BME280;28505;56.970;40.998;2023-08-21T17:30:57;99908.84;;;13.06;100.00
42859;BME280;28505;56.970;40.998;2023-08-21T17:36:19;99897.03;;;13.24;100.00
42859;BME280;28505;56.970;40.998;2023-08-21T17:41:42;99909.81;;;12.56;100.00
42859;BME280;28505;56.970;40.998;2023-08-21T17:47:04;99907.31;;;11.73;100.00
42859;BME280;28505;56.970;40.998;2023-08-21T17:52:26;99899.19;;;12.60;100.00
42859;BME280;28505;56.970;40.998;2023-08-21T17:57:50;99903.66;;;12.42;100.00
42859;BME280;28505;56.970;40.998;2023-08-21T18:03:19;99905.19;;;12.34;100.00
42859;BME280;28505;56.970;40.998;2023-08-21T18:08:41;99892.19;;;12.59;100.00
42859;BME280;28505;56.970;40.998;2023-08-21T18:14:03;99887.00;;;12.49;100.00
42859;BME280;28505;56.970;40.998;2023-08-21T18:19:25;99901.28;;;12.40;100.00
42859;BME280;28505;56.970;40.998;2023-08-21T18:25:05;99902.72;;;11.88;100.00
42859;BME280;28505;56.970;40.998;2023-08-21T18:30:33;99892.59;;;11.80;100.00
42859;BME280;28505;56.970;40.998;2023-08-21T18:35:58;99900.16;;;11.41;100.00
42859;BME280;28505;56.970;40.998;2023-08-21T18:41:26;99896.81;;;11.17;100.00
42859;BME280;28505;56.970;40.998;2023-08-21T18:46:48;99893.56;;;12.11;100.00
42859;BME280;28505;56.970;40.998;2023-08-21T18:52:10;99888.31;;;11.92;100.00
42859;BME280;28505;56.970;40.998;2023-08-21T18:57:32;99884.41;;;11.71;100.00
42859;BME280;28505;56.970;40.998;2023-08-21T19:02:54;99879.59;;;11.95;100.00
42859;BME280;28505;56.970;40.998;2023-08-21T19:08:17;99881.50;;;11.81;100.00
42859;BME280;28505;56.970;40.998;2023-08-21T19:13:39;99887.03;;;11.62;100.00
42859;BME280;28505;56.970;40.998;2023-08-21T19:19:01;99878.41;;;11.60;100.00
42859;BME280;28505;56.970;40.998;2023-08-21T19:24:23;99881.22;;;11.14;100.00
42859;BME280;28505;56.970;40.998;2023-08-21T19:29:46;99877.31;;;11.06;100.00
42859;BME280;28505;56.970;40.998;2023-08-21T19:35:08;99876.19;;;10.80;100.00
42859;BME280;28505;56.970;40.998;2023-08-21T19:40:35;99883.13;;;11.13;100.00
42859;BME280;28505;56.970;40.998;2023-08-21T19:45:58;99874.09;;;12.01;100.00
42859;BME280;28505;56.970;40.998;2023-08-21T19:51:20;99878.41;;;11.05;100.00
42859;BME280;28505;56.970;40.998;2023-08-21T19:56:44;99866.56;;;10.60;100.00
42859;BME280;28505;56.970;40.998;2023-08-21T20:02:07;99872.31;;;10.53;100.00
42859;BME280;28505;56.970;40.998;2023-08-21T20:07:29;99875.97;;;10.76;100.00
42859;BME280;28505;56.970;40.998;2023-08-21T20:12:52;99867.06;;;10.43;100.00
42859;BME280;28505;56.970;40.998;2023-08-21T20:18:14;99876.31;;;10.55;100.00
42859;BME280;28505;56.970;40.998;2023-08-21T20:23:36;99875.69;;;10.77;100.00
42859;BME280;28505;56.970;40.998;2023-08-21T20:28:59;99882.47;;;10.04;100.00
42859;BME280;28505;56.970;40.998;2023-08-21T20:34:21;99881.16;;;10.02;100.00
42859;BME280;28505;56.970;40.998;2023-08-21T20:39:44;99876.81;;;11.87;100.00
42859;BME280;28505;56.970;40.998;2023-08-21T20:45:06;99860.19;;;10.69;100.00
42859;BME280;28505;56.970;40.998;2023-08-21T20:50:28;99864.16;;;10.39;100.00
42859;BME280;28505;56.970;40.998;2023-08-21T20:55:53;99858.50;;;10.03;100.00
42859;BME280;28505;56.970;40.998;2023-08-21T21:01:16;99859.22;;;11.34;100.00
42859;BME280;28505;56.970;40.998;2023-08-21T21:06:39;99846.81;;;10.92;100.00
42859;BME280;28505;56.970;40.998;2023-08-21T21:12:01;99844.00;;;9.61;100.00
42859;BME280;28505;56.970;40.998;2023-08-21T21:17:27;99840.66;;;10.07;100.00
42859;BME280;28505;56.970;40.998;2023-08-21T21:22:49;99837.41;;;9.72;100.00
42859;BME280;28505;56.970;40.998;2023-08-21T21:28:12;99829.75;;;9.98;100.00
42859;BME280;28505;56.970;40.998;2023-08-21T21:33:34;99830.13;;;10.11;100.00
42859;BME280;28505;56.970;40.998;2023-08-21T21:38:56;99828.72;;;10.13;100.00
42859;BME280;28505;56.970;40.998;2023-08-21T21:44:18;99820.94;;;10.30;100.00
42859;BME280;28505;56.970;40.998;2023-08-21T21:49:41;99827.03;;;10.36;100.00
42859;BME280;28505;56.970;40.998;2023-08-21T21:55:03;99823.06;;;9.96;100.00
42859;BME280;28505;56.970;40.998;2023-08-21T22:00:25;99821.97;;;9.97;100.00
42859;BME280;28505;56.970;40.998;2023-08-21T22:05:47;99814.34;;;10.04;100.00
42859;BME280;28505;56.970;40.998;2023-08-21T22:11:09;99811.31;;;10.43;100.00
42859;BME280;28505;56.970;40.998;2023-08-21T22:16:31;99806.22;;;9.47;100.00
42859;BME280;28505;56.970;40.998;2023-08-21T22:21:54;99809.75;;;9.85;100.00
42859;BME280;28505;56.970;40.998;2023-08-21T22:27:16;99805.97;;;9.49;100.00
42859;BME280;28505;56.970;40.998;2023-08-21T22:32:39;99803.72;;;9.13;100.00
42859;BME280;28505;56.970;40.998;2023-08-21T22:38:01;99796.56;;;9.03;100.00
42859;BME280;28505;56.970;40.998;2023-08-21T22:43:23;99798.16;;;9.47;100.00
42859;BME280;28505;56.970;40.998;2023-08-21T22:48:50;99800.06;;;9.04;100.00
42859;BME280;28505;56.970;40.998;2023-08-21T22:54:14;99794.16;;;8.78;100.00
42859;BME280;28505;56.970;40.998;2023-08-21T22:59:36;99796.19;;;9.34;100.00
42859;BME280;28505;56.970;40.998;2023-08-21T23:04:58;99798.72;;;9.01;100.00
42859;BME280;28505;56.970;40.998;2023-08-21T23:10:21;99793.88;;;9.03;100.00
42859;BME280;28505;56.970;40.998;2023-08-21T23:15:47;99789.41;;;8.35;100.00
42859;BME280;28505;56.970;40.998;2023-08-21T23:21:13;99783.25;;;9.12;100.00
42859;BME280;28505;56.970;40.998;2023-08-21T23:26:36;99780.47;;;9.22;100.00
42859;BME280;28505;56.970;40.998;2023-08-21T23:31:59;99779.47;;;8.70;100.00
42859;BME280;28505;56.970;40.998;2023-08-21T23:37:21;99770.88;;;9.16;100.00
42859;BME280;28505;56.970;40.998;2023-08-21T23:42:44;99766.50;;;8.72;100.00
42859;BME280;28505;56.970;40.998;2023-08-21T23:48:06;99776.13;;;9.02;100.00
42859;BME280;28505;56.970;40.998;2023-08-21T23:53:28;99767.94;;;8.88;100.00
42859;BME280;28505;56.970;40.998;2023-08-21T23:58:50;99762.69;;;9.02;100.00
